sensor_id;sensor_type;location;lat;lon;timestamp;P1;durP1;ratioP1;P2;durP2;ratioP2
44732;SDS011;30460;50.836;4.390;2022-11-15T06:46:10;8.57;;;3.83;;
44732;SDS011;30460;50.836;4.390;2022-11-15T06:48:36;13.13;;;7.00;;
44732;SDS011;30460;50.836;4.390;2022-11-15T06:51:03;5.60;;;3.00;;
44732;SDS011;30460;50.836;4.390;2022-11-15T06:53:30;5.70;;;3.30;;
44732;SDS011;30460;50.836;4.390;2022-11-15T06:56:01;8.33;;;3.63;;
44732;SDS011;30460;50.836;4.390;2022-11-15T06:58:28;6.00;;;3.30;;
44732;SDS011;30460;50.836;4.390;2022-11-15T07:00:59;7.27;;;3.90;;
44732;SDS011;30460;50.836;4.390;2022-11-15T07:03:25;5.70;;;3.47;;
44732;SDS011;30460;50.836;4.390;2022-11-15T07:05:52;6.83;;;3.90;;
44732;SDS011;30460;50.836;4.390;2022-11-15T07:08:19;7.10;;;3.50;;
44732;SDS011;30460;50.836;4.390;2022-11-15T07:10:45;7.40;;;3.40;;
44732;SDS011;30460;50.836;4.390;2022-11-15T07:13:11;4.57;;;2.83;;
44732;SDS011;30460;50.836;4.390;2022-11-15T07:15:37;5.10;;;3.37;;
44732;SDS011;30460;50.836;4.390;2022-11-15T07:18:03;6.07;;;2.90;;
44732;SDS011;30460;50.836;4.390;2022-11-15T07:20:29;9.47;;;3.20;;
44732;SDS011;30460;50.836;4.390;2022-11-15T07:23:01;6.40;;;2.83;;
44732;SDS011;30460;50.836;4.390;2022-11-15T07:25:28;5.07;;;3.10;;
44732;SDS011;30460;50.836;4.390;2022-11-15T07:27:55;5.70;;;3.20;;
44732;SDS011;30460;50.836;4.390;2022-11-15T07:30:21;5.40;;;3.77;;
44732;SDS011;30460;50.836;4.390;2022-11-15T07:32:47;6.23;;;3.70;;
44732;SDS011;30460;50.836;4.390;2022-11-15T07:35:13;10.20;;;3.53;;
44732;SDS011;30460;50.836;4.390;2022-11-15T07:37:41;6.33;;;3.40;;
44732;SDS011;30460;50.836;4.390;2022-11-15T07:40:13;5.93;;;3.20;;
44732;SDS011;30460;50.836;4.390;2022-11-15T07:42:39;6.00;;;3.30;;
44732;SDS011;30460;50.836;4.390;2022-11-15T07:45:22;6.77;;;4.10;;
44732;SDS011;30460;50.836;4.390;2022-11-15T07:47:50;5.17;;;3.30;;
44732;SDS011;30460;50.836;4.390;2022-11-15T07:50:17;4.83;;;3.20;;
44732;SDS011;30460;50.836;4.390;2022-11-15T07:52:44;7.37;;;3.27;;
44732;SDS011;30460;50.836;4.390;2022-11-15T07:55:10;5.10;;;2.93;;
44732;SDS011;30460;50.836;4.390;2022-11-15T07:57:37;7.03;;;3.67;;
44732;SDS011;30460;50.836;4.390;2022-11-15T08:00:04;6.53;;;3.97;;
44732;SDS011;30460;50.836;4.390;2022-11-15T08:02:31;6.17;;;3.90;;
44732;SDS011;30460;50.836;4.390;2022-11-15T08:04:57;6.63;;;4.90;;
44732;SDS011;30460;50.836;4.390;2022-11-15T08:07:28;6.20;;;3.63;;
44732;SDS011;30460;50.836;4.390;2022-11-15T08:09:54;5.83;;;3.60;;
44732;SDS011;30460;50.836;4.390;2022-11-15T08:12:20;5.47;;;3.30;;
44732;SDS011;30460;50.836;4.390;2022-11-15T08:14:46;5.13;;;3.20;;
44732;SDS011;30460;50.836;4.390;2022-11-15T08:17:13;6.63;;;3.13;;
44732;SDS011;30460;50.836;4.390;2022-11-15T08:19:40;7.53;;;3.17;;
44732;SDS011;30460;50.836;4.390;2022-11-15T08:22:08;6.53;;;3.00;;
44732;SDS011;30460;50.836;4.390;2022-11-15T08:24:35;5.37;;;2.80;;
44732;SDS011;30460;50.836;4.390;2022-11-15T08:27:01;4.47;;;2.80;;
44732;SDS011;30460;50.836;4.390;2022-11-15T08:29:27;4.43;;;2.50;;
44732;SDS011;30460;50.836;4.390;2022-11-15T08:31:54;4.43;;;2.90;;
44732;SDS011;30460;50.836;4.390;2022-11-15T08:34:22;6.53;;;3.13;;
44732;SDS011;30460;50.836;4.390;2022-11-15T08:36:48;7.30;;;2.70;;
44732;SDS011;30460;50.836;4.390;2022-11-15T08:39:16;6.37;;;2.63;;
44732;SDS011;30460;50.836;4.390;2022-11-15T08:41:42;3.93;;;2.10;;
44732;SDS011;30460;50.836;4.390;2022-11-15T08:44:09;4.73;;;2.20;;
44732;SDS011;30460;50.836;4.390;2022-11-15T08:46:35;3.73;;;2.30;;
44732;SDS011;30460;50.836;4.390;2022-11-15T08:49:02;2.50;;;2.00;;
44732;SDS011;30460;50.836;4.390;2022-11-15T08:51:27;7.20;;;2.60;;
44732;SDS011;30460;50.836;4.390;2022-11-15T08:53:53;3.20;;;2.33;;
44732;SDS011;30460;50.836;4.390;2022-11-15T08:56:20;5.37;;;2.30;;
44732;SDS011;30460;50.836;4.390;2022-11-15T08:58:48;6.30;;;2.77;;
44732;SDS011;30460;50.836;4.390;2022-11-15T09:01:16;6.53;;;2.50;;
44732;SDS011;30460;50.836;4.390;2022-11-15T09:03:42;5.23;;;2.40;;
44732;SDS011;30460;50.836;4.390;2022-11-15T09:06:11;3.17;;;2.10;;
44732;SDS011;30460;50.836;4.390;2022-11-15T09:08:39;5.53;;;2.10;;
44732;SDS011;30460;50.836;4.390;2022-11-15T09:11:11;5.60;;;2.10;;
44732;SDS011;30460;50.836;4.390;2022-11-15T09:13:37;4.10;;;2.20;;
44732;SDS011;30460;50.836;4.390;2022-11-15T09:16:03;3.93;;;2.20;;
44732;SDS011;30460;50.836;4.390;2022-11-15T09:18:30;7.27;;;2.10;;
44732;SDS011;30460;50.836;4.390;2022-11-15T09:20:57;4.77;;;2.03;;
44732;SDS011;30460;50.836;4.390;2022-11-15T09:23:23;4.50;;;2.40;;
44732;SDS011;30460;50.836;4.390;2022-11-15T09:25:49;5.23;;;2.03;;
44732;SDS011;30460;50.836;4.390;2022-11-15T09:28:15;5.33;;;2.07;;
44732;SDS011;30460;50.836;4.390;2022-11-15T09:30:41;5.70;;;2.10;;
44732;SDS011;30460;50.836;4.390;2022-11-15T09:33:11;3.60;;;1.60;;
44732;SDS011;30460;50.836;4.390;2022-11-15T09:35:37;6.47;;;2.03;;
44732;SDS011;30460;50.836;4.390;2022-11-15T09:38:05;6.77;;;2.10;;
44732;SDS011;30460;50.836;4.390;2022-11-15T09:40:31;5.50;;;1.77;;
44732;SDS011;30460;50.836;4.390;2022-11-15T09:43:02;6.03;;;1.80;;
44732;SDS011;30460;50.836;4.390;2022-11-15T09:45:34;9.17;;;2.50;;
44732;SDS011;30460;50.836;4.390;2022-11-15T09:48:06;6.10;;;2.17;;
44732;SDS011;30460;50.836;4.390;2022-11-15T09:50:40;9.20;;;2.17;;
44732;SDS011;30460;50.836;4.390;2022-11-15T09:53:14;5.77;;;1.90;;
44732;SDS011;30460;50.836;4.390;2022-11-15T09:55:44;5.40;;;1.80;;
44732;SDS011;30460;50.836;4.390;2022-11-15T10:00:42;10.07;;;2.23;;
44732;SDS011;30460;50.836;4.390;2022-11-15T10:03:25;6.43;;;1.90;;
44732;SDS011;30460;50.836;4.390;2022-11-15T10:05:54;3.50;;;1.50;;
44732;SDS011;30460;50.836;4.390;2022-11-15T10:11:04;6.37;;;1.77;;
44732;SDS011;30460;50.836;4.390;2022-11-15T10:13:31;5.40;;;1.87;;
44732;SDS011;30460;50.836;4.390;2022-11-15T10:16:04;6.33;;;1.47;;
44732;SDS011;30460;50.836;4.390;2022-11-15T10:18:38;6.77;;;1.57;;
44732;SDS011;30460;50.836;4.390;2022-11-15T10:21:19;5.97;;;1.90;;
44732;SDS011;30460;50.836;4.390;2022-11-15T10:23:46;5.53;;;1.87;;
44732;SDS011;30460;50.836;4.390;2022-11-15T10:26:13;6.50;;;1.90;;
44732;SDS011;30460;50.836;4.390;2022-11-15T10:28:40;4.57;;;2.07;;
44732;SDS011;30460;50.836;4.390;2022-11-15T10:31:28;6.67;;;1.63;;
44732;SDS011;30460;50.836;4.390;2022-11-15T10:36:56;2.87;;;1.60;;
44732;SDS011;30460;50.836;4.390;2022-11-15T10:39:23;8.70;;;1.60;;
44732;SDS011;30460;50.836;4.390;2022-11-15T10:41:52;3.20;;;1.53;;
44732;SDS011;30460;50.836;4.390;2022-11-15T10:47:33;7.80;;;2.00;;
44732;SDS011;30460;50.836;4.390;2022-11-15T10:49:34;9.43;;;2.37;;
44732;SDS011;30460;50.836;4.390;2022-11-15T10:52:16;9.20;;;1.57;;
44732;SDS011;30460;50.836;4.390;2022-11-15T10:54:48;4.47;;;1.50;;
44732;SDS011;30460;50.836;4.390;2022-11-15T10:57:16;6.53;;;1.87;;
44732;SDS011;30460;50.836;4.390;2022-11-15T10:59:47;5.00;;;1.57;;
44732;SDS011;30460;50.836;4.390;2022-11-15T11:04:56;4.13;;;1.53;;
44732;SDS011;30460;50.836;4.390;2022-11-15T11:07:25;7.17;;;1.87;;
44732;SDS011;30460;50.836;4.390;2022-11-15T11:10:03;8.90;;;1.90;;
44732;SDS011;30460;50.836;4.390;2022-11-15T11:12:32;6.53;;;1.80;;
44732;SDS011;30460;50.836;4.390;2022-11-15T11:14:59;6.77;;;1.60;;
44732;SDS011;30460;50.836;4.390;2022-11-15T11:20:21;7.70;;;1.77;;
44732;SDS011;30460;50.836;4.390;2022-11-15T11:22:58;5.37;;;1.70;;
44732;SDS011;30460;50.836;4.390;2022-11-15T11:27:59;9.27;;;2.00;;
44732;SDS011;30460;50.836;4.390;2022-11-15T11:30:34;5.63;;;1.80;;
44732;SDS011;30460;50.836;4.390;2022-11-15T11:33:07;6.60;;;1.67;;
44732;SDS011;30460;50.836;4.390;2022-11-15T11:35:50;4.10;;;1.67;;
44732;SDS011;30460;50.836;4.390;2022-11-15T11:43:59;5.40;;;1.40;;
44732;SDS011;30460;50.836;4.390;2022-11-15T11:49:02;4.47;;;1.43;;
44732;SDS011;30460;50.836;4.390;2022-11-15T11:51:35;5.33;;;1.50;;
44732;SDS011;30460;50.836;4.390;2022-11-15T11:54:12;7.63;;;1.60;;
44732;SDS011;30460;50.836;4.390;2022-11-15T11:56:43;5.90;;;1.53;;
44732;SDS011;30460;50.836;4.390;2022-11-15T12:01:43;3.93;;;1.67;;
44732;SDS011;30460;50.836;4.390;2022-11-15T12:09:26;5.80;;;1.80;;
44732;SDS011;30460;50.836;4.390;2022-11-15T12:17:21;4.70;;;1.50;;
44732;SDS011;30460;50.836;4.390;2022-11-15T12:19:48;4.20;;;1.53;;
44732;SDS011;30460;50.836;4.390;2022-11-15T12:22:19;7.10;;;1.60;;
44732;SDS011;30460;50.836;4.390;2022-11-15T12:24:49;3.17;;;1.40;;
44732;SDS011;30460;50.836;4.390;2022-11-15T12:30:14;2.80;;;1.40;;
44732;SDS011;30460;50.836;4.390;2022-11-15T12:32:39;6.40;;;1.60;;
44732;SDS011;30460;50.836;4.390;2022-11-15T12:35:19;4.40;;;1.60;;
44732;SDS011;30460;50.836;4.390;2022-11-15T12:37:52;3.37;;;1.57;;
44732;SDS011;30460;50.836;4.390;2022-11-15T12:45:26;5.57;;;1.23;;
44732;SDS011;30460;50.836;4.390;2022-11-15T12:47:52;6.73;;;1.50;;
44732;SDS011;30460;50.836;4.390;2022-11-15T12:50:52;5.13;;;1.53;;
44732;SDS011;30460;50.836;4.390;2022-11-15T13:01:09;3.60;;;1.30;;
44732;SDS011;30460;50.836;4.390;2022-11-15T13:03:36;3.33;;;1.60;;
44732;SDS011;30460;50.836;4.390;2022-11-15T13:12:58;3.27;;;1.53;;
44732;SDS011;30460;50.836;4.390;2022-11-15T13:19:59;5.57;;;1.70;;
44732;SDS011;30460;50.836;4.390;2022-11-15T13:22:27;3.57;;;1.63;;
44732;SDS011;30460;50.836;4.390;2022-11-15T13:28:02;3.87;;;1.53;;
44732;SDS011;30460;50.836;4.390;2022-11-15T13:30:29;5.13;;;1.70;;
44732;SDS011;30460;50.836;4.390;2022-11-15T13:32:55;2.70;;;1.70;;
44732;SDS011;30460;50.836;4.390;2022-11-15T13:35:24;4.00;;;1.57;;
44732;SDS011;30460;50.836;4.390;2022-11-15T13:37:50;2.83;;;1.40;;
44732;SDS011;30460;50.836;4.390;2022-11-15T13:42:44;2.20;;;1.57;;
44732;SDS011;30460;50.836;4.390;2022-11-15T13:45:12;3.00;;;1.60;;
44732;SDS011;30460;50.836;4.390;2022-11-15T13:47:41;5.03;;;1.37;;
44732;SDS011;30460;50.836;4.390;2022-11-15T13:50:11;3.47;;;1.67;;
44732;SDS011;30460;50.836;4.390;2022-11-15T13:52:37;3.93;;;1.80;;
44732;SDS011;30460;50.836;4.390;2022-11-15T13:55:15;3.13;;;1.50;;
44732;SDS011;30460;50.836;4.390;2022-11-15T13:57:51;3.00;;;1.93;;
44732;SDS011;30460;50.836;4.390;2022-11-15T14:00:24;5.13;;;1.63;;
44732;SDS011;30460;50.836;4.390;2022-11-15T14:02:51;3.10;;;1.60;;
44732;SDS011;30460;50.836;4.390;2022-11-15T14:05:18;3.20;;;1.67;;
44732;SDS011;30460;50.836;4.390;2022-11-15T14:10:33;3.77;;;1.53;;
44732;SDS011;30460;50.836;4.390;2022-11-15T14:13:00;3.57;;;1.60;;
44732;SDS011;30460;50.836;4.390;2022-11-15T14:15:31;3.20;;;1.70;;
44732;SDS011;30460;50.836;4.390;2022-11-15T14:17:59;3.37;;;1.70;;
44732;SDS011;30460;50.836;4.390;2022-11-15T14:20:28;7.30;;;2.07;;
44732;SDS011;30460;50.836;4.390;2022-11-15T14:22:56;3.50;;;2.03;;
44732;SDS011;30460;50.836;4.390;2022-11-15T14:25:24;2.03;;;1.50;;
44732;SDS011;30460;50.836;4.390;2022-11-15T14:28:10;3.50;;;1.70;;
44732;SDS011;30460;50.836;4.390;2022-11-15T14:30:38;3.93;;;1.60;;
44732;SDS011;30460;50.836;4.390;2022-11-15T14:35:50;3.43;;;1.60;;
44732;SDS011;30460;50.836;4.390;2022-11-15T14:38:16;2.80;;;1.70;;
44732;SDS011;30460;50.836;4.390;2022-11-15T14:40:42;3.17;;;1.57;;
44732;SDS011;30460;50.836;4.390;2022-11-15T14:43:10;3.60;;;1.63;;
44732;SDS011;30460;50.836;4.390;2022-11-15T14:45:36;3.27;;;1.97;;
44732;SDS011;30460;50.836;4.390;2022-11-15T14:48:03;2.50;;;1.70;;
44732;SDS011;30460;50.836;4.390;2022-11-15T14:50:28;2.53;;;1.80;;
44732;SDS011;30460;50.836;4.390;2022-11-15T14:52:54;2.80;;;1.77;;
44732;SDS011;30460;50.836;4.390;2022-11-15T14:55:21;2.50;;;1.63;;
44732;SDS011;30460;50.836;4.390;2022-11-15T14:57:48;3.53;;;2.00;;
44732;SDS011;30460;50.836;4.390;2022-11-15T15:00:14;1.87;;;1.70;;
44732;SDS011;30460;50.836;4.390;2022-11-15T15:02:41;2.53;;;1.80;;
44732;SDS011;30460;50.836;4.390;2022-11-15T15:05:18;3.20;;;1.80;;
44732;SDS011;30460;50.836;4.390;2022-11-15T15:07:44;3.73;;;2.00;;
44732;SDS011;30460;50.836;4.390;2022-11-15T15:10:11;3.77;;;1.80;;
44732;SDS011;30460;50.836;4.390;2022-11-15T15:12:37;3.00;;;1.87;;
44732;SDS011;30460;50.836;4.390;2022-11-15T15:15:04;4.10;;;1.77;;
44732;SDS011;30460;50.836;4.390;2022-11-15T15:17:31;3.47;;;2.00;;
44732;SDS011;30460;50.836;4.390;2022-11-15T15:19:58;2.77;;;1.90;;
44732;SDS011;30460;50.836;4.390;2022-11-15T15:22:25;5.37;;;1.80;;
44732;SDS011;30460;50.836;4.390;2022-11-15T15:24:53;4.37;;;1.83;;
44732;SDS011;30460;50.836;4.390;2022-11-15T15:27:19;4.10;;;2.20;;
44732;SDS011;30460;50.836;4.390;2022-11-15T15:29:46;3.57;;;2.20;;
44732;SDS011;30460;50.836;4.390;2022-11-15T15:32:12;2.27;;;2.00;;
44732;SDS011;30460;50.836;4.390;2022-11-15T15:34:38;3.40;;;2.00;;
44732;SDS011;30460;50.836;4.390;2022-11-15T15:39:55;2.33;;;1.90;;
44732;SDS011;30460;50.836;4.390;2022-11-15T15:42:21;2.30;;;1.90;;
44732;SDS011;30460;50.836;4.390;2022-11-15T15:44:51;2.87;;;2.10;;
44732;SDS011;30460;50.836;4.390;2022-11-15T15:47:20;3.20;;;2.10;;
44732;SDS011;30460;50.836;4.390;2022-11-15T15:49:47;6.63;;;2.97;;
44732;SDS011;30460;50.836;4.390;2022-11-15T15:52:13;3.13;;;2.33;;
44732;SDS011;30460;50.836;4.390;2022-11-15T15:54:39;5.07;;;2.53;;
44732;SDS011;30460;50.836;4.390;2022-11-15T15:57:06;2.93;;;1.93;;
44732;SDS011;30460;50.836;4.390;2022-11-15T15:59:33;2.93;;;2.17;;
44732;SDS011;30460;50.836;4.390;2022-11-15T16:01:59;3.30;;;2.10;;
44732;SDS011;30460;50.836;4.390;2022-11-15T16:04:25;3.07;;;2.00;;
44732;SDS011;30460;50.836;4.390;2022-11-15T16:06:51;3.73;;;2.40;;
44732;SDS011;30460;50.836;4.390;2022-11-15T16:09:20;5.20;;;2.40;;
44732;SDS011;30460;50.836;4.390;2022-11-15T16:12:09;3.23;;;2.50;;
44732;SDS011;30460;50.836;4.390;2022-11-15T16:14:36;3.07;;;2.77;;
44732;SDS011;30460;50.836;4.390;2022-11-15T16:17:02;3.63;;;2.63;;
44732;SDS011;30460;50.836;4.390;2022-11-15T16:19:28;6.00;;;3.23;;
44732;SDS011;30460;50.836;4.390;2022-11-15T16:21:54;11.63;;;7.00;;
44732;SDS011;30460;50.836;4.390;2022-11-15T16:24:20;4.17;;;3.17;;
44732;SDS011;30460;50.836;4.390;2022-11-15T16:26:47;4.40;;;2.83;;
44732;SDS011;30460;50.836;4.390;2022-11-15T16:29:13;4.57;;;3.13;;
44732;SDS011;30460;50.836;4.390;2022-11-15T16:31:39;5.83;;;3.27;;
44732;SDS011;30460;50.836;4.390;2022-11-15T16:34:05;3.13;;;2.77;;
44732;SDS011;30460;50.836;4.390;2022-11-15T16:36:32;5.43;;;3.47;;
44732;SDS011;30460;50.836;4.390;2022-11-15T16:38:59;3.90;;;3.10;;
44732;SDS011;30460;50.836;4.390;2022-11-15T16:41:28;4.30;;;2.87;;
44732;SDS011;30460;50.836;4.390;2022-11-15T16:43:54;4.90;;;2.90;;
44732;SDS011;30460;50.836;4.390;2022-11-15T16:46:24;5.73;;;3.37;;
44732;SDS011;30460;50.836;4.390;2022-11-15T16:48:50;4.90;;;2.93;;
44732;SDS011;30460;50.836;4.390;2022-11-15T16:51:18;4.33;;;3.50;;
44732;SDS011;30460;50.836;4.390;2022-11-15T16:53:44;4.00;;;3.50;;
44732;SDS011;30460;50.836;4.390;2022-11-15T16:56:20;4.77;;;3.67;;
44732;SDS011;30460;50.836;4.390;2022-11-15T16:58:47;4.83;;;3.17;;
44732;SDS011;30460;50.836;4.390;2022-11-15T17:01:32;4.83;;;3.70;;
44732;SDS011;30460;50.836;4.390;2022-11-15T17:03:59;5.03;;;4.17;;
44732;SDS011;30460;50.836;4.390;2022-11-15T17:06:37;3.43;;;3.00;;
44732;SDS011;30460;50.836;4.390;2022-11-15T17:09:04;4.73;;;3.20;;
44732;SDS011;30460;50.836;4.390;2022-11-15T17:11:30;4.63;;;3.40;;
44732;SDS011;30460;50.836;4.390;2022-11-15T17:13:57;4.27;;;3.37;;
44732;SDS011;30460;50.836;4.390;2022-11-15T17:16:25;5.87;;;4.87;;
44732;SDS011;30460;50.836;4.390;2022-11-15T17:18:52;5.73;;;4.00;;
44732;SDS011;30460;50.836;4.390;2022-11-15T17:21:21;3.83;;;3.43;;
44732;SDS011;30460;50.836;4.390;2022-11-15T17:23:47;4.77;;;3.77;;
44732;SDS011;30460;50.836;4.390;2022-11-15T17:26:15;5.37;;;3.93;;
44732;SDS011;30460;50.836;4.390;2022-11-15T17:28:41;4.30;;;3.70;;
44732;SDS011;30460;50.836;4.390;2022-11-15T17:31:08;4.20;;;3.63;;
44732;SDS011;30460;50.836;4.390;2022-11-15T17:33:35;5.40;;;3.50;;
44732;SDS011;30460;50.836;4.390;2022-11-15T17:36:02;5.40;;;4.57;;
44732;SDS011;30460;50.836;4.390;2022-11-15T17:38:29;6.50;;;4.40;;
44732;SDS011;30460;50.836;4.390;2022-11-15T17:41:10;5.20;;;4.00;;
44732;SDS011;30460;50.836;4.390;2022-11-15T17:43:37;5.03;;;4.10;;
44732;SDS011;30460;50.836;4.390;2022-11-15T17:46:05;7.13;;;4.50;;
44732;SDS011;30460;50.836;4.390;2022-11-15T17:48:31;4.80;;;4.10;;
44732;SDS011;30460;50.836;4.390;2022-11-15T17:51:01;4.97;;;4.40;;
44732;SDS011;30460;50.836;4.390;2022-11-15T17:53:31;6.03;;;3.80;;
44732;SDS011;30460;50.836;4.390;2022-11-15T17:56:01;4.13;;;3.73;;
44732;SDS011;30460;50.836;4.390;2022-11-15T17:58:28;4.13;;;3.60;;
44732;SDS011;30460;50.836;4.390;2022-11-15T18:00:54;5.77;;;3.40;;
44732;SDS011;30460;50.836;4.390;2022-11-15T18:03:20;3.90;;;3.50;;
44732;SDS011;30460;50.836;4.390;2022-11-15T18:05:46;3.90;;;3.13;;
44732;SDS011;30460;50.836;4.390;2022-11-15T18:08:12;5.20;;;3.53;;
44732;SDS011;30460;50.836;4.390;2022-11-15T18:10:41;3.67;;;3.27;;
44732;SDS011;30460;50.836;4.390;2022-11-15T18:13:07;5.73;;;3.80;;
44732;SDS011;30460;50.836;4.390;2022-11-15T18:15:34;3.77;;;3.40;;
44732;SDS011;30460;50.836;4.390;2022-11-15T18:18:00;4.10;;;3.40;;
44732;SDS011;30460;50.836;4.390;2022-11-15T18:20:26;3.97;;;3.47;;
44732;SDS011;30460;50.836;4.390;2022-11-15T18:22:52;4.40;;;3.80;;
44732;SDS011;30460;50.836;4.390;2022-11-15T18:25:18;4.07;;;3.67;;
44732;SDS011;30460;50.836;4.390;2022-11-15T18:27:44;4.47;;;3.90;;
44732;SDS011;30460;50.836;4.390;2022-11-15T18:30:10;4.03;;;3.60;;
44732;SDS011;30460;50.836;4.390;2022-11-15T18:32:38;4.63;;;3.30;;
44732;SDS011;30460;50.836;4.390;2022-11-15T18:35:08;3.97;;;3.57;;
44732;SDS011;30460;50.836;4.390;2022-11-15T18:37:34;6.93;;;4.33;;
44732;SDS011;30460;50.836;4.390;2022-11-15T18:40:00;5.03;;;4.53;;
44732;SDS011;30460;50.836;4.390;2022-11-15T18:42:26;5.53;;;3.80;;
44732;SDS011;30460;50.836;4.390;2022-11-15T18:44:56;5.73;;;4.73;;
44732;SDS011;30460;50.836;4.390;2022-11-15T18:47:22;4.63;;;4.23;;
44732;SDS011;30460;50.836;4.390;2022-11-15T18:49:48;4.27;;;3.87;;
44732;SDS011;30460;50.836;4.390;2022-11-15T18:52:14;4.83;;;4.30;;
44732;SDS011;30460;50.836;4.390;2022-11-15T18:54:40;6.00;;;4.50;;
44732;SDS011;30460;50.836;4.390;2022-11-15T18:57:07;6.40;;;5.80;;
44732;SDS011;30460;50.836;4.390;2022-11-15T18:59:33;5.97;;;4.30;;
44732;SDS011;30460;50.836;4.390;2022-11-15T19:01:59;6.33;;;4.63;;
44732;SDS011;30460;50.836;4.390;2022-11-15T19:04:26;4.80;;;4.30;;
44732;SDS011;30460;50.836;4.390;2022-11-15T19:06:52;4.87;;;4.37;;
44732;SDS011;30460;50.836;4.390;2022-11-15T19:09:18;4.90;;;4.23;;
44732;SDS011;30460;50.836;4.390;2022-11-15T19:11:44;5.27;;;4.77;;
44732;SDS011;30460;50.836;4.390;2022-11-15T19:14:12;5.00;;;4.50;;
44732;SDS011;30460;50.836;4.390;2022-11-15T19:16:39;5.60;;;4.73;;
44732;SDS011;30460;50.836;4.390;2022-11-15T19:19:07;6.53;;;4.97;;
44732;SDS011;30460;50.836;4.390;2022-11-15T19:21:34;6.60;;;5.90;;
44732;SDS011;30460;50.836;4.390;2022-11-15T19:24:07;5.87;;;4.90;;
44732;SDS011;30460;50.836;4.390;2022-11-15T19:26:34;6.23;;;4.80;;
44732;SDS011;30460;50.836;4.390;2022-11-15T19:29:05;6.53;;;5.87;;
44732;SDS011;30460;50.836;4.390;2022-11-15T19:31:32;6.17;;;4.80;;
44732;SDS011;30460;50.836;4.390;2022-11-15T19:34:02;6.03;;;4.30;;
44732;SDS011;30460;50.836;4.390;2022-11-15T19:36:30;6.00;;;4.80;;
44732;SDS011;30460;50.836;4.390;2022-11-15T19:38:59;4.77;;;4.27;;
44732;SDS011;30460;50.836;4.390;2022-11-15T19:41:30;5.17;;;4.67;;
44732;SDS011;30460;50.836;4.390;2022-11-15T19:43:56;4.73;;;4.10;;
44732;SDS011;30460;50.836;4.390;2022-11-15T19:46:23;4.83;;;4.37;;
44732;SDS011;30460;50.836;4.390;2022-11-15T19:48:51;5.00;;;4.30;;
44732;SDS011;30460;50.836;4.390;2022-11-15T19:51:18;5.87;;;4.43;;
44732;SDS011;30460;50.836;4.390;2022-11-15T19:53:48;5.83;;;3.90;;
44732;SDS011;30460;50.836;4.390;2022-11-15T19:56:16;6.37;;;4.17;;
44732;SDS011;30460;50.836;4.390;2022-11-15T19:58:42;6.20;;;5.00;;
44732;SDS011;30460;50.836;4.390;2022-11-15T20:03:43;4.67;;;4.07;;
44732;SDS011;30460;50.836;4.390;2022-11-15T20:06:11;5.93;;;3.73;;
44732;SDS011;30460;50.836;4.390;2022-11-15T20:08:37;5.40;;;4.50;;
44732;SDS011;30460;50.836;4.390;2022-11-15T20:11:03;5.67;;;4.00;;
44732;SDS011;30460;50.836;4.390;2022-11-15T20:13:30;5.20;;;4.30;;
44732;SDS011;30460;50.836;4.390;2022-11-15T20:15:56;6.50;;;4.37;;
44732;SDS011;30460;50.836;4.390;2022-11-15T20:18:24;6.37;;;4.00;;
44732;SDS011;30460;50.836;4.390;2022-11-15T20:20:50;5.47;;;4.47;;
44732;SDS011;30460;50.836;4.390;2022-11-15T20:23:17;9.80;;;7.70;;
44732;SDS011;30460;50.836;4.390;2022-11-15T20:25:43;5.13;;;4.37;;
44732;SDS011;30460;50.836;4.390;2022-11-15T20:28:10;5.73;;;4.83;;
44732;SDS011;30460;50.836;4.390;2022-11-15T20:30:41;6.27;;;4.93;;
44732;SDS011;30460;50.836;4.390;2022-11-15T20:33:07;6.73;;;5.10;;
44732;SDS011;30460;50.836;4.390;2022-11-15T20:35:33;7.60;;;5.07;;
44732;SDS011;30460;50.836;4.390;2022-11-15T20:37:59;6.77;;;4.60;;
44732;SDS011;30460;50.836;4.390;2022-11-15T20:40:29;5.63;;;4.23;;
44732;SDS011;30460;50.836;4.390;2022-11-15T20:42:58;4.63;;;4.13;;
44732;SDS011;30460;50.836;4.390;2022-11-15T20:45:23;6.17;;;4.70;;
44732;SDS011;30460;50.836;4.390;2022-11-15T20:47:50;5.57;;;4.80;;
44732;SDS011;30460;50.836;4.390;2022-11-15T20:50:16;5.30;;;4.80;;
44732;SDS011;30460;50.836;4.390;2022-11-15T20:52:42;4.97;;;4.47;;
44732;SDS011;30460;50.836;4.390;2022-11-15T20:55:08;5.30;;;4.60;;
44732;SDS011;30460;50.836;4.390;2022-11-15T20:57:34;6.17;;;4.63;;
44732;SDS011;30460;50.836;4.390;2022-11-15T21:00:00;6.53;;;4.63;;
44732;SDS011;30460;50.836;4.390;2022-11-15T21:02:26;5.60;;;4.70;;
44732;SDS011;30460;50.836;4.390;2022-11-15T21:04:53;5.03;;;4.47;;
44732;SDS011;30460;50.836;4.390;2022-11-15T21:07:19;5.77;;;4.90;;
44732;SDS011;30460;50.836;4.390;2022-11-15T21:09:45;5.73;;;4.53;;
44732;SDS011;30460;50.836;4.390;2022-11-15T21:12:30;5.13;;;4.57;;
44732;SDS011;30460;50.836;4.390;2022-11-15T21:14:56;5.00;;;4.50;;
44732;SDS011;30460;50.836;4.390;2022-11-15T21:17:22;6.80;;;4.60;;
44732;SDS011;30460;50.836;4.390;2022-11-15T21:19:48;5.73;;;4.20;;
44732;SDS011;30460;50.836;4.390;2022-11-15T21:22:14;6.03;;;4.93;;
44732;SDS011;30460;50.836;4.390;2022-11-15T21:24:40;6.23;;;4.33;;
44732;SDS011;30460;50.836;4.390;2022-11-15T21:27:06;4.87;;;4.37;;
44732;SDS011;30460;50.836;4.390;2022-11-15T21:29:33;4.93;;;4.10;;
44732;SDS011;30460;50.836;4.390;2022-11-15T21:32:05;5.57;;;4.43;;
44732;SDS011;30460;50.836;4.390;2022-11-15T21:34:31;5.47;;;4.27;;
44732;SDS011;30460;50.836;4.390;2022-11-15T21:36:58;6.27;;;4.20;;
44732;SDS011;30460;50.836;4.390;2022-11-15T21:39:24;6.03;;;4.43;;
44732;SDS011;30460;50.836;4.390;2022-11-15T21:41:50;4.67;;;4.10;;
44732;SDS011;30460;50.836;4.390;2022-11-15T21:44:16;5.67;;;4.63;;
44732;SDS011;30460;50.836;4.390;2022-11-15T21:46:42;6.17;;;5.10;;
44732;SDS011;30460;50.836;4.390;2022-11-15T21:49:08;8.37;;;5.10;;
44732;SDS011;30460;50.836;4.390;2022-11-15T21:51:35;6.83;;;4.17;;
44732;SDS011;30460;50.836;4.390;2022-11-15T21:54:01;5.60;;;4.83;;
44732;SDS011;30460;50.836;4.390;2022-11-15T21:56:28;6.57;;;4.90;;
44732;SDS011;30460;50.836;4.390;2022-11-15T21:58:54;6.93;;;4.63;;
44732;SDS011;30460;50.836;4.390;2022-11-15T22:01:21;4.87;;;4.10;;
44732;SDS011;30460;50.836;4.390;2022-11-15T22:04:06;5.27;;;4.50;;
44732;SDS011;30460;50.836;4.390;2022-11-15T22:06:32;5.30;;;4.80;;
